createdAt,value
2023-02-02T00:01:34.684Z,99033.75
2023-02-02T00:04:02.206Z,99030.34
2023-02-02T00:06:30.861Z,99038.63
2023-02-02T00:08:59.661Z,98977.81
2023-02-02T00:11:27.518Z,99028.97
2023-02-02T00:13:55.039Z,99035.34
2023-02-02T00:16:31.134Z,99011.09
2023-02-02T00:19:01.353Z,99024.44
2023-02-02T00:21:28.703Z,99021.19
2023-02-02T00:23:55.821Z,99029.94
2023-02-02T00:26:22.940Z,99018.91
2023-02-02T00:28:49.961Z,99026.41
2023-02-02T00:31:17.112Z,98992.34
2023-02-02T00:33:48.651Z,99018.19
2023-02-02T00:36:16.176Z,99017.31
2023-02-02T00:38:43.255Z,99021.06
2023-02-02T00:41:10.261Z,99031.53
2023-02-02T00:43:37.253Z,99017.19
2023-02-02T00:46:04.474Z,99020.94
2023-02-02T00:48:31.670Z,99009.22
2023-02-02T00:50:58.709Z,99023.44
2023-02-02T00:53:25.647Z,99024.09
2023-02-02T00:55:52.606Z,98995.91
2023-02-02T00:58:19.557Z,99023.03
2023-02-02T01:00:47.815Z,99025.69
2023-02-02T01:03:14.942Z,99008.19
2023-02-02T01:05:42.313Z,99025.06
2023-02-02T01:08:10.569Z,99026.72
2023-02-02T01:10:37.612Z,99011.00
2023-02-02T01:13:05.068Z,99022.75
2023-02-02T01:15:32.198Z,99018.69
2023-02-02T01:17:59.170Z,98966.25
2023-02-02T01:20:26.163Z,99010.53
2023-02-02T01:22:53.345Z,99014.22
2023-02-02T01:25:20.468Z,99002.41
2023-02-02T01:27:47.746Z,99014.16
2023-02-02T01:30:14.930Z,99003.13
2023-02-02T01:32:41.879Z,99012.78
2023-02-02T01:35:10.408Z,98975.84
2023-02-02T01:37:39.027Z,99014.41
2023-02-02T01:40:07.182Z,99015.47
2023-02-02T01:42:34.134Z,99008.41
2023-02-02T01:45:05.476Z,99012.03
2023-02-02T01:47:42.901Z,98999.81
2023-02-02T01:50:12.393Z,98994.78
2023-02-02T01:52:43.000Z,99009.69
2023-02-02T01:55:13.230Z,99003.41
2023-02-02T01:58:00.269Z,99002.88
2023-02-02T02:00:27.927Z,98954.59
2023-02-02T02:03:00.829Z,99004.25
2023-02-02T02:05:36.422Z,98995.72
2023-02-02T02:08:18.997Z,99014.47
2023-02-02T02:10:46.195Z,99007.56
2023-02-02T02:13:14.188Z,98995.97
2023-02-02T02:16:08.091Z,98916.09
2023-02-02T02:19:00.863Z,99024.94
2023-02-02T02:22:13.199Z,99005.19
2023-02-02T02:25:23.984Z,99026.94
2023-02-02T02:28:09.257Z,99020.75
2023-02-02T02:31:00.887Z,99024.38
2023-02-02T02:33:40.631Z,99012.28
2023-02-02T02:36:40.917Z,99022.19
2023-02-02T02:39:13.587Z,99022.50
2023-02-02T02:41:48.547Z,99015.69
2023-02-02T02:44:18.451Z,99013.34
2023-02-02T02:46:46.043Z,99007.00
2023-02-02T02:49:14.083Z,99013.28
2023-02-02T02:51:49.993Z,98997.03
2023-02-02T02:55:02.597Z,99034.84
2023-02-02T02:58:01.094Z,99032.53
2023-02-02T03:00:46.542Z,99036.13
2023-02-02T03:03:34.558Z,98994.53
2023-02-02T03:06:19.837Z,99033.25
2023-02-02T03:09:03.374Z,99009.84
2023-02-02T03:11:30.355Z,99030.19
2023-02-02T03:13:57.693Z,99028.53
2023-02-02T03:16:24.737Z,99030.09
2023-02-02T03:18:51.761Z,99029.69
2023-02-02T03:21:18.729Z,99025.28
2023-02-02T03:23:45.665Z,99038.31
2023-02-02T03:26:12.791Z,99035.09
2023-02-02T03:28:40.080Z,99012.91
2023-02-02T03:31:07.402Z,99040.25
2023-02-02T03:33:37.151Z,99041.25
2023-02-02T03:36:04.286Z,99044.81
2023-02-02T03:38:31.405Z,99036.13
2023-02-02T03:40:58.361Z,99039.31
2023-02-02T03:43:25.538Z,99039.50
2023-02-02T03:46:00.172Z,99039.31
2023-02-02T03:48:27.557Z,99043.59
2023-02-02T03:50:54.744Z,99038.44
2023-02-02T03:53:22.269Z,99043.38
2023-02-02T03:55:49.337Z,99039.09
2023-02-02T03:58:17.622Z,99046.44
2023-02-02T04:00:44.624Z,99044.44
2023-02-02T04:03:11.611Z,99055.03
2023-02-02T04:05:38.532Z,99048.91
2023-02-02T04:08:05.678Z,99056.84
2023-02-02T04:10:32.666Z,99043.91
2023-02-02T04:12:59.640Z,99055.34
2023-02-02T04:15:26.881Z,99058.34
2023-02-02T04:17:53.999Z,99034.91
2023-02-02T04:20:20.928Z,99057.78
2023-02-02T04:22:47.889Z,99060.59
2023-02-02T04:25:14.853Z,99042.56
2023-02-02T04:27:41.893Z,99048.84
2023-02-02T04:30:09.633Z,98986.31
2023-02-02T04:32:36.595Z,99054.41
2023-02-02T04:35:03.997Z,99052.84
2023-02-02T04:37:32.460Z,99057.53
2023-02-02T04:39:59.491Z,99041.09
2023-02-02T04:42:26.505Z,99062.97
2023-02-02T04:44:53.441Z,99055.25
2023-02-02T04:47:20.347Z,99057.84
2023-02-02T04:49:47.288Z,99058.47
2023-02-02T04:52:14.253Z,99031.78
2023-02-02T04:54:41.195Z,99071.88
2023-02-02T04:57:08.185Z,98994.81
2023-02-02T04:59:35.136Z,99075.56
2023-02-02T05:02:02.829Z,99066.63
2023-02-02T05:04:29.963Z,99064.94
2023-02-02T05:06:56.941Z,99056.25
2023-02-02T05:09:23.927Z,99073.84
2023-02-02T05:11:50.884Z,99050.03
2023-02-02T05:14:18.590Z,99076.53
2023-02-02T05:16:46.150Z,99081.69
2023-02-02T05:19:13.329Z,99060.06
2023-02-02T05:21:40.345Z,99085.88
2023-02-02T05:24:07.415Z,99080.50
2023-02-02T05:26:35.256Z,99079.25
2023-02-02T05:29:03.024Z,99084.25
2023-02-02T05:31:31.469Z,99056.16
2023-02-02T05:33:58.993Z,99058.88
2023-02-02T05:36:26.034Z,99068.72
2023-02-02T05:38:53.100Z,99085.88
2023-02-02T05:41:20.111Z,99094.34
2023-02-02T05:43:47.121Z,99067.09
2023-02-02T05:46:14.224Z,99086.16
2023-02-02T05:48:41.352Z,99064.25
2023-02-02T05:51:40.704Z,99088.91
2023-02-02T05:54:07.653Z,99076.94
2023-02-02T05:56:34.634Z,99068.81
2023-02-02T05:59:01.632Z,99093.00
2023-02-02T06:01:28.657Z,99095.16
2023-02-02T06:03:55.926Z,99102.06
2023-02-02T06:06:22.870Z,99089.72
2023-02-02T06:08:49.841Z,99092.66
2023-02-02T06:11:18.609Z,99067.72
2023-02-02T06:13:46.365Z,99042.63
2023-02-02T06:16:13.498Z,99104.69
2023-02-02T06:18:40.637Z,99110.75
2023-02-02T06:21:07.719Z,99098.91
2023-02-02T06:23:35.247Z,99117.94
2023-02-02T06:26:03.775Z,99110.72
2023-02-02T06:28:31.886Z,99111.94
2023-02-02T06:31:05.033Z,99097.34
2023-02-02T06:33:32.170Z,99105.50
2023-02-02T06:36:01.249Z,99105.00
2023-02-02T06:38:28.439Z,99114.03
2023-02-02T06:40:55.479Z,99083.78
2023-02-02T06:43:22.433Z,99108.09
2023-02-02T06:45:49.367Z,99114.22
2023-02-02T06:48:16.486Z,99107.13
2023-02-02T06:50:43.478Z,99091.72
2023-02-02T06:53:10.544Z,99118.25
2023-02-02T06:55:37.545Z,99115.38
2023-02-02T06:58:04.492Z,99116.91
2023-02-02T07:00:31.843Z,99119.97
2023-02-02T07:02:59.329Z,99102.03
2023-02-02T07:05:30.541Z,99117.44
2023-02-02T07:07:57.866Z,99120.16
2023-02-02T07:11:11.260Z,99118.69
2023-02-02T07:13:11.812Z,99106.94
2023-02-02T07:15:40.146Z,99114.25
2023-02-02T07:18:07.429Z,99121.34
2023-02-02T07:20:34.708Z,99111.94
2023-02-02T07:23:04.618Z,99123.09
2023-02-02T07:25:31.923Z,99113.22
2023-02-02T07:27:58.960Z,99112.94
2023-02-02T07:30:29.854Z,99131.06
2023-02-02T07:32:57.520Z,99129.34
2023-02-02T07:35:24.985Z,99121.56
2023-02-02T07:37:53.804Z,99128.03
2023-02-02T07:40:21.690Z,99136.94
2023-02-02T07:42:49.579Z,99129.16
2023-02-02T07:45:26.521Z,99127.72
2023-02-02T07:48:02.996Z,99138.53
2023-02-02T07:50:31.218Z,99139.91
2023-02-02T07:52:59.782Z,99142.88
2023-02-02T07:55:27.389Z,99143.22
2023-02-02T07:57:55.619Z,99147.50
2023-02-02T08:00:23.384Z,99147.13
2023-02-02T08:02:50.678Z,99139.38
2023-02-02T08:05:17.789Z,99138.41
2023-02-02T08:07:48.469Z,99136.16
2023-02-02T08:10:15.696Z,99109.22
2023-02-02T08:12:42.691Z,99140.75
2023-02-02T08:15:13.303Z,99145.50
2023-02-02T08:17:40.388Z,99136.06
2023-02-02T08:20:07.937Z,99135.44
2023-02-02T08:22:34.900Z,99135.53
2023-02-02T08:25:01.890Z,99134.88
2023-02-02T08:27:29.883Z,99140.56
2023-02-02T08:29:56.871Z,99072.09
2023-02-02T08:32:23.968Z,99141.03
2023-02-02T08:34:52.046Z,99122.88
2023-02-02T08:37:19.122Z,99138.22
2023-02-02T08:39:46.163Z,99140.19
2023-02-02T08:42:13.060Z,99132.28
2023-02-02T08:46:00.410Z,99125.41
2023-02-02T08:47:30.473Z,99130.66
2023-02-02T08:49:57.535Z,99142.69
2023-02-02T08:52:25.840Z,99125.66
2023-02-02T08:54:52.895Z,99140.41
2023-02-02T08:57:19.897Z,99131.97
2023-02-02T08:59:46.833Z,99144.22
2023-02-02T09:02:18.061Z,99138.38
2023-02-02T09:04:47.132Z,99130.78
2023-02-02T09:07:14.141Z,99138.06
2023-02-02T09:09:41.427Z,99140.63
2023-02-02T09:12:08.380Z,99106.28
2023-02-02T09:14:35.525Z,99135.31
2023-02-02T09:17:02.875Z,99131.44
2023-02-02T09:19:30.450Z,99127.50
2023-02-02T09:21:57.453Z,99127.28
2023-02-02T09:24:24.386Z,99135.84
2023-02-02T09:26:51.663Z,99129.50
2023-02-02T09:29:18.811Z,99131.59
2023-02-02T09:31:47.093Z,99131.66
2023-02-02T09:34:15.460Z,99131.00
2023-02-02T09:36:43.374Z,99075.84
2023-02-02T09:39:13.039Z,99082.06
2023-02-02T09:41:52.358Z,99128.22
2023-02-02T09:44:50.605Z,99128.03
2023-02-02T09:47:20.514Z,99129.69
2023-02-02T09:50:20.000Z,99124.75
2023-02-02T09:52:53.388Z,99060.69
2023-02-02T09:55:29.148Z,99131.59
2023-02-02T09:58:05.586Z,99120.16
2023-02-02T10:00:39.674Z,99118.31
2023-02-02T10:03:21.990Z,99120.44
2023-02-02T10:06:11.524Z,99118.84
2023-02-02T10:08:55.954Z,99097.72
2023-02-02T10:11:45.738Z,99121.34
2023-02-02T10:14:23.355Z,99094.53
2023-02-02T10:16:54.800Z,99112.91
2023-02-02T10:19:30.803Z,99096.72
2023-02-02T10:22:04.596Z,99115.00
2023-02-02T10:24:32.697Z,99107.28
2023-02-02T10:27:08.888Z,99103.56
2023-02-02T10:30:00.579Z,99106.81
2023-02-02T10:32:34.849Z,99097.03
2023-02-02T10:35:13.624Z,99104.06
2023-02-02T10:37:58.656Z,99101.28
2023-02-02T10:40:59.717Z,99104.94
2023-02-02T10:43:47.659Z,99103.97
2023-02-02T10:46:17.388Z,99105.50
2023-02-02T10:48:47.358Z,99096.66
2023-02-02T10:51:23.362Z,99101.50
2023-02-02T10:53:53.784Z,99091.50
2023-02-02T10:56:35.489Z,99095.88
2023-02-02T10:59:27.629Z,99092.72
2023-02-02T11:01:54.747Z,99094.66
2023-02-02T11:04:41.409Z,99105.72
2023-02-02T11:07:08.404Z,99091.00
2023-02-02T11:09:42.445Z,99097.03
2023-02-02T11:12:24.467Z,99089.56
2023-02-02T11:15:01.966Z,99067.34
2023-02-02T11:17:32.790Z,99101.13
2023-02-02T11:19:59.957Z,99089.63
2023-02-02T11:22:29.696Z,99103.81
2023-02-02T11:25:00.344Z,99028.75
2023-02-02T11:27:47.955Z,99099.72
2023-02-02T11:30:34.573Z,99107.66
2023-02-02T11:33:26.124Z,99103.78
2023-02-02T11:35:58.932Z,99090.88
2023-02-02T11:38:27.584Z,99110.59
2023-02-02T11:41:11.200Z,99111.88
2023-02-02T11:43:51.065Z,99080.63
2023-02-02T11:46:21.438Z,99116.41
2023-02-02T11:49:10.359Z,99090.78
2023-02-02T11:51:37.327Z,99124.13
2023-02-02T11:54:07.722Z,99108.72
2023-02-02T11:56:37.425Z,99114.53
2023-02-02T11:59:05.875Z,99113.41
2023-02-02T12:01:40.063Z,99120.81
2023-02-02T12:04:13.541Z,99129.78
2023-02-02T12:06:41.041Z,99119.84
2023-02-02T12:09:19.867Z,99117.88
2023-02-02T12:11:59.419Z,99115.88
2023-02-02T12:14:54.823Z,99112.97
2023-02-02T12:17:45.410Z,99132.59
2023-02-02T12:20:30.759Z,99132.81
2023-02-02T12:23:15.744Z,99129.50
2023-02-02T12:25:45.665Z,99133.19
2023-02-02T12:28:27.811Z,99132.59
2023-02-02T12:30:55.105Z,99118.13
2023-02-02T12:33:24.962Z,99100.88
2023-02-02T12:36:12.098Z,99121.59
2023-02-02T12:39:07.986Z,99118.16
2023-02-02T12:42:01.672Z,99049.72
2023-02-02T12:45:06.987Z,99118.69
2023-02-02T12:47:46.450Z,99123.34
2023-02-02T12:50:26.963Z,99138.94
2023-02-02T12:53:07.248Z,99113.94
2023-02-02T12:56:17.149Z,99136.84
2023-02-02T12:59:31.961Z,99140.28
2023-02-02T13:02:19.945Z,99145.16
2023-02-02T13:04:57.478Z,99124.75
2023-02-02T13:07:46.168Z,99128.75
2023-02-02T13:10:17.339Z,99138.78
2023-02-02T13:12:55.591Z,99134.25
2023-02-02T13:15:29.807Z,99134.31
2023-02-02T13:18:00.622Z,99134.25
2023-02-02T13:20:53.341Z,99138.09
2023-02-02T13:23:27.559Z,99134.75
2023-02-02T13:26:06.902Z,99133.28
2023-02-02T13:28:40.698Z,99136.00
2023-02-02T13:31:15.854Z,99139.88
2023-02-02T13:33:48.611Z,99136.44
2023-02-02T13:36:29.918Z,99142.38
2023-02-02T13:39:01.858Z,99132.28
2023-02-02T13:41:30.670Z,99132.78
2023-02-02T13:44:16.124Z,99114.19
2023-02-02T13:46:58.025Z,99126.41
2023-02-02T13:49:37.204Z,99130.97
2023-02-02T13:52:10.246Z,99134.78
2023-02-02T13:54:58.925Z,99143.38
2023-02-02T13:58:07.106Z,99140.72
2023-02-02T14:00:47.893Z,99150.22
2023-02-02T14:03:57.478Z,99150.72
2023-02-02T14:06:27.126Z,99151.00
2023-02-02T14:09:01.657Z,99141.88
2023-02-02T14:11:34.619Z,99145.63
2023-02-02T14:14:32.933Z,99149.50
2023-02-02T14:17:13.169Z,99146.53
2023-02-02T14:19:42.168Z,99146.47
2023-02-02T14:22:09.271Z,99153.72
2023-02-02T14:24:36.236Z,99170.25
2023-02-02T14:27:29.625Z,99166.19
2023-02-02T14:29:56.574Z,99177.09
2023-02-02T14:32:29.849Z,99168.19
2023-02-02T14:35:18.867Z,99183.47
2023-02-02T14:38:20.063Z,99177.97
2023-02-02T14:41:41.556Z,99177.09
2023-02-02T14:44:08.725Z,99181.41
2023-02-02T14:46:44.538Z,99185.00
2023-02-02T14:49:15.031Z,99156.63
2023-02-02T14:51:52.623Z,99155.34
2023-02-02T14:54:43.459Z,99185.84
2023-02-02T14:57:22.191Z,99192.28
2023-02-02T14:59:50.192Z,99169.78
2023-02-02T15:02:23.000Z,99196.72
2023-02-02T15:04:50.357Z,99179.41
2023-02-02T15:07:23.051Z,99196.09
2023-02-02T15:09:56.912Z,99188.81
2023-02-02T15:12:42.010Z,99145.59
2023-02-02T15:15:17.861Z,99197.13
2023-02-02T15:18:08.272Z,99177.72
2023-02-02T15:20:49.232Z,99184.63
2023-02-02T15:23:31.458Z,99199.50
2023-02-02T15:26:04.974Z,99202.06
2023-02-02T15:28:44.664Z,99198.69
2023-02-02T15:31:11.721Z,99181.41
2023-02-02T15:33:43.999Z,99207.59
2023-02-02T15:36:17.999Z,99205.00
2023-02-02T15:38:48.108Z,99200.22
2023-02-02T15:41:26.529Z,99205.47
2023-02-02T15:43:53.955Z,99209.03
2023-02-02T15:46:27.933Z,99209.03
2023-02-02T15:49:36.198Z,99213.31
2023-02-02T15:52:35.544Z,99213.81
2023-02-02T15:55:02.904Z,99210.66
2023-02-02T15:57:36.913Z,99221.75
2023-02-02T16:00:24.405Z,99232.34
2023-02-02T16:02:58.026Z,99226.00
2023-02-02T16:05:37.156Z,99230.56
2023-02-02T16:08:27.764Z,99228.81
2023-02-02T16:11:17.716Z,99219.72
2023-02-02T16:13:59.672Z,99234.91
2023-02-02T16:16:38.116Z,99225.78
2023-02-02T16:19:18.470Z,99213.16
2023-02-02T16:21:56.279Z,99221.81
2023-02-02T16:24:28.953Z,99224.31
2023-02-02T16:26:59.541Z,99234.78
2023-02-02T16:29:28.376Z,99229.41
2023-02-02T16:31:56.874Z,99226.81
2023-02-02T16:34:41.866Z,99245.28
2023-02-02T16:37:38.113Z,99237.56
2023-02-02T16:40:17.358Z,99246.50
2023-02-02T16:42:44.380Z,99253.50
2023-02-02T16:45:35.467Z,99252.63
2023-02-02T16:48:36.240Z,99258.66
2023-02-02T16:51:12.029Z,99192.19
2023-02-02T16:53:39.188Z,99237.50
2023-02-02T16:56:07.796Z,99263.47
2023-02-02T16:58:43.789Z,99260.16
2023-02-02T17:01:15.862Z,99258.28
2023-02-02T17:03:53.365Z,99263.72
2023-02-02T17:06:45.674Z,99264.81
2023-02-02T17:09:35.193Z,99265.69
2023-02-02T17:12:33.117Z,99242.19
2023-02-02T17:15:06.142Z,99270.47
2023-02-02T17:17:33.425Z,99272.06
2023-02-02T17:20:00.687Z,99273.94
2023-02-02T17:22:28.073Z,99200.63
2023-02-02T17:24:55.234Z,99253.81
2023-02-02T17:27:31.625Z,99271.03
2023-02-02T17:30:04.491Z,99215.06
2023-02-02T17:32:31.918Z,99274.44
2023-02-02T17:34:58.909Z,99264.59
2023-02-02T17:37:26.000Z,99287.38
2023-02-02T17:39:52.987Z,99269.31
2023-02-02T17:42:25.350Z,99291.84
2023-02-02T17:44:52.445Z,99259.16
2023-02-02T17:47:19.845Z,99285.78
2023-02-02T17:49:46.826Z,99293.59
2023-02-02T17:52:14.019Z,99293.53
2023-02-02T17:54:41.047Z,99294.41
2023-02-02T17:57:08.045Z,99285.53
2023-02-02T17:59:35.093Z,99292.16
2023-02-02T18:02:02.305Z,99273.22
2023-02-02T18:04:29.271Z,99290.03
2023-02-02T18:06:56.220Z,99295.06
2023-02-02T18:09:23.373Z,99292.91
2023-02-02T18:11:50.469Z,99294.44
2023-02-02T18:14:17.416Z,99277.50
2023-02-02T18:16:44.397Z,99294.25
2023-02-02T18:19:11.411Z,99294.91
2023-02-02T18:21:38.450Z,99283.19
2023-02-02T18:24:05.527Z,99288.84
2023-02-02T18:26:34.677Z,99249.75
2023-02-02T18:29:01.787Z,99258.06
2023-02-02T18:31:28.858Z,99272.16
2023-02-02T18:33:56.182Z,99287.41
2023-02-02T18:36:23.855Z,99291.88
2023-02-02T18:38:53.763Z,99294.00
2023-02-02T18:41:24.199Z,99284.16
2023-02-02T18:43:54.848Z,99232.16
2023-02-02T18:46:21.883Z,99283.56
2023-02-02T18:48:49.023Z,99290.97
2023-02-02T18:51:18.729Z,99298.38
2023-02-02T18:53:47.556Z,99301.53
2023-02-02T18:56:15.707Z,99297.94
2023-02-02T18:58:42.817Z,99313.44
2023-02-02T19:01:16.806Z,99307.28
2023-02-02T19:03:48.518Z,99309.06
2023-02-02T19:06:34.245Z,99303.88
2023-02-02T19:09:01.417Z,99307.97
2023-02-02T19:11:36.942Z,99307.22
2023-02-02T19:14:12.525Z,99292.38
2023-02-02T19:16:39.710Z,99263.16
2023-02-02T19:19:26.118Z,99300.03
2023-02-02T19:21:58.442Z,99299.00
2023-02-02T19:24:35.012Z,99300.97
2023-02-02T19:27:04.811Z,99299.22
2023-02-02T19:29:36.145Z,99288.78
2023-02-02T19:32:12.913Z,99290.63
2023-02-02T19:34:39.933Z,99289.31
2023-02-02T19:37:27.048Z,99301.44
2023-02-02T19:40:14.864Z,99303.69
2023-02-02T19:42:47.278Z,99304.19
2023-02-02T19:45:26.769Z,99281.50
2023-02-02T19:47:57.248Z,99305.31
2023-02-02T19:50:32.612Z,99307.44
2023-02-02T19:53:01.946Z,99316.91
2023-02-02T19:55:36.186Z,99319.28
2023-02-02T19:58:35.502Z,99317.09
2023-02-02T20:01:15.272Z,99308.25
2023-02-02T20:03:45.447Z,99320.31
2023-02-02T20:06:21.260Z,99314.22
2023-02-02T20:08:48.513Z,99309.19
2023-02-02T20:11:35.755Z,99302.84
2023-02-02T20:14:18.711Z,99318.44
2023-02-02T20:16:51.959Z,99315.81
2023-02-02T20:19:24.486Z,99310.69
2023-02-02T20:21:55.800Z,99306.78
2023-02-02T20:24:27.342Z,99315.44
2023-02-02T20:26:58.544Z,99311.44
2023-02-02T20:29:30.199Z,99324.28
2023-02-02T20:31:59.256Z,99315.31
2023-02-02T20:34:40.072Z,99259.75
2023-02-02T20:37:13.180Z,99318.06
2023-02-02T20:39:42.621Z,99323.69
2023-02-02T20:42:09.769Z,99320.50
2023-02-02T20:44:36.851Z,99314.88
2023-02-02T20:47:04.309Z,99310.06
2023-02-02T20:49:32.008Z,99312.00
2023-02-02T20:52:02.428Z,99322.41
2023-02-02T20:54:31.621Z,99320.63
2023-02-02T20:56:58.629Z,99307.56
2023-02-02T20:59:25.839Z,99318.81
2023-02-02T21:01:53.167Z,99319.69
2023-02-02T21:04:23.132Z,99325.38
2023-02-02T21:07:00.136Z,99330.78
2023-02-02T21:09:28.018Z,99321.66
2023-02-02T21:11:55.417Z,99300.28
2023-02-02T21:14:23.207Z,99325.44
2023-02-02T21:16:50.193Z,99325.94
2023-02-02T21:19:18.022Z,99325.81
2023-02-02T21:21:45.004Z,99321.94
2023-02-02T21:24:12.031Z,99291.69
2023-02-02T21:26:39.137Z,99323.63
2023-02-02T21:29:06.248Z,99321.38
2023-02-02T21:31:35.518Z,99333.34
2023-02-02T21:34:02.849Z,99328.09
2023-02-02T21:36:37.293Z,99328.16
2023-02-02T21:39:22.212Z,99335.16
2023-02-02T21:41:50.657Z,99328.88
2023-02-02T21:44:20.165Z,99329.97
2023-02-02T21:46:51.731Z,99330.56
2023-02-02T21:49:25.939Z,99335.19
2023-02-02T21:51:57.783Z,99331.06
2023-02-02T21:54:27.927Z,99328.28
2023-02-02T21:56:55.468Z,99308.53
2023-02-02T21:59:27.535Z,99325.22
2023-02-02T22:01:55.028Z,99327.00
2023-02-02T22:04:24.026Z,99324.06
2023-02-02T22:07:20.842Z,99329.78
2023-02-02T22:09:55.330Z,99305.91
2023-02-02T22:12:24.591Z,99316.78
2023-02-02T22:15:00.267Z,99318.22
2023-02-02T22:17:36.304Z,99335.88
2023-02-02T22:20:13.139Z,99310.63
2023-02-02T22:22:47.542Z,99325.00
2023-02-02T22:25:17.303Z,99331.66
2023-02-02T22:27:57.620Z,99323.47
2023-02-02T22:30:41.695Z,99324.06
2023-02-02T22:33:11.764Z,99334.50
2023-02-02T22:35:38.947Z,99324.00
2023-02-02T22:38:06.520Z,99333.25
2023-02-02T22:40:33.747Z,99330.78
2023-02-02T22:43:03.578Z,99336.81
2023-02-02T22:45:30.577Z,99290.16
2023-02-02T22:47:58.214Z,99341.09
2023-02-02T22:50:28.577Z,99319.50
2023-02-02T22:52:56.129Z,99326.25
2023-02-02T22:55:23.150Z,99336.19
2023-02-02T22:57:50.162Z,99335.03
2023-02-02T23:00:36.151Z,99319.63
2023-02-02T23:03:03.282Z,99333.84
2023-02-02T23:05:30.336Z,99337.16
2023-02-02T23:07:57.309Z,99336.34
2023-02-02T23:10:27.752Z,99332.44
2023-02-02T23:12:58.566Z,99330.03
2023-02-02T23:15:26.157Z,99333.63
2023-02-02T23:17:53.633Z,99320.97
2023-02-02T23:20:20.831Z,99339.38
2023-02-02T23:22:47.804Z,99335.53
2023-02-02T23:25:15.438Z,99313.41
2023-02-02T23:27:42.863Z,99344.78
2023-02-02T23:30:11.578Z,99325.66
2023-02-02T23:32:38.608Z,99330.41
2023-02-02T23:35:09.305Z,99336.81
2023-02-02T23:37:37.328Z,99321.31
2023-02-02T23:40:04.976Z,99304.88
2023-02-02T23:42:32.307Z,99329.28
2023-02-02T23:44:59.361Z,99329.72
2023-02-02T23:47:26.620Z,99307.28
2023-02-02T23:49:53.862Z,99331.25
2023-02-02T23:52:20.991Z,99315.75
2023-02-02T23:54:48.078Z,99328.97
2023-02-02T23:57:15.414Z,99333.44
2023-02-02T23:59:42.411Z,99328.13
